sensor_id;sensor_type;location;lat;lon;timestamp;temperature;humidity
18541;DHT22;9400;50.924;5.328;2022-09-27T00:02:09;10.40;99.90
18541;DHT22;9400;50.924;5.328;2022-09-27T00:04:36;10.30;99.90
18541;DHT22;9400;50.924;5.328;2022-09-27T00:07:04;10.30;99.90
18541;DHT22;9400;50.924;5.328;2022-09-27T00:09:32;10.40;99.90
18541;DHT22;9400;50.924;5.328;2022-09-27T00:12:00;10.30;99.90
18541;DHT22;9400;50.924;5.328;2022-09-27T00:14:29;10.30;99.90
18541;DHT22;9400;50.924;5.328;2022-09-27T00:16:57;10.30;99.90
18541;DHT22;9400;50.924;5.328;2022-09-27T00:19:25;10.30;99.90
18541;DHT22;9400;50.924;5.328;2022-09-27T00:21:52;10.30;99.90
18541;DHT22;9400;50.924;5.328;2022-09-27T00:24:21;10.30;99.90
18541;DHT22;9400;50.924;5.328;2022-09-27T00:26:49;10.30;99.90
18541;DHT22;9400;50.924;5.328;2022-09-27T00:29:18;10.20;99.90
18541;DHT22;9400;50.924;5.328;2022-09-27T00:31:47;10.20;99.90
18541;DHT22;9400;50.924;5.328;2022-09-27T00:34:18;10.20;99.90
18541;DHT22;9400;50.924;5.328;2022-09-27T00:36:46;10.30;99.90
18541;DHT22;9400;50.924;5.328;2022-09-27T00:39:14;10.20;99.90
18541;DHT22;9400;50.924;5.328;2022-09-27T00:41:43;10.20;99.90
18541;DHT22;9400;50.924;5.328;2022-09-27T00:47:29;10.20;99.90
18541;DHT22;9400;50.924;5.328;2022-09-27T00:50:02;10.20;99.90
18541;DHT22;9400;50.924;5.328;2022-09-27T00:52:37;10.20;99.90
18541;DHT22;9400;50.924;5.328;2022-09-27T00:55:13;10.20;99.90
18541;DHT22;9400;50.924;5.328;2022-09-27T00:57:43;10.20;99.90
18541;DHT22;9400;50.924;5.328;2022-09-27T01:00:13;10.20;99.90
18541;DHT22;9400;50.924;5.328;2022-09-27T01:02:48;10.20;99.90
18541;DHT22;9400;50.924;5.328;2022-09-27T01:05:19;10.20;99.90
18541;DHT22;9400;50.924;5.328;2022-09-27T01:07:47;10.20;99.90
18541;DHT22;9400;50.924;5.328;2022-09-27T01:10:15;10.20;99.90
18541;DHT22;9400;50.924;5.328;2022-09-27T01:12:55;10.20;99.90
18541;DHT22;9400;50.924;5.328;2022-09-27T01:15:31;10.20;99.90
18541;DHT22;9400;50.924;5.328;2022-09-27T01:18:15;10.10;99.90
18541;DHT22;9400;50.924;5.328;2022-09-27T01:23:49;10.10;99.90
18541;DHT22;9400;50.924;5.328;2022-09-27T01:26:34;10.10;99.90
18541;DHT22;9400;50.924;5.328;2022-09-27T01:29:12;10.10;99.90
18541;DHT22;9400;50.924;5.328;2022-09-27T01:31:48;10.00;99.90
18541;DHT22;9400;50.924;5.328;2022-09-27T01:34:24;10.00;99.90
18541;DHT22;9400;50.924;5.328;2022-09-27T01:36:58;9.90;99.90
18541;DHT22;9400;50.924;5.328;2022-09-27T01:39:35;9.90;99.90
18541;DHT22;9400;50.924;5.328;2022-09-27T01:42:11;9.90;99.90
18541;DHT22;9400;50.924;5.328;2022-09-27T01:44:48;9.90;99.90
18541;DHT22;9400;50.924;5.328;2022-09-27T01:47:21;9.90;99.90
18541;DHT22;9400;50.924;5.328;2022-09-27T01:49:54;9.90;99.90
18541;DHT22;9400;50.924;5.328;2022-09-27T01:52:28;9.90;99.90
18541;DHT22;9400;50.924;5.328;2022-09-27T01:55:00;9.90;99.90
18541;DHT22;9400;50.924;5.328;2022-09-27T01:57:35;9.90;99.90
18541;DHT22;9400;50.924;5.328;2022-09-27T02:00:07;9.90;99.90
18541;DHT22;9400;50.924;5.328;2022-09-27T02:02:39;9.90;99.90
18541;DHT22;9400;50.924;5.328;2022-09-27T02:05:09;9.90;99.90
18541;DHT22;9400;50.924;5.328;2022-09-27T02:07:43;9.90;99.90
18541;DHT22;9400;50.924;5.328;2022-09-27T02:10:17;9.90;99.90
18541;DHT22;9400;50.924;5.328;2022-09-27T02:12:50;9.90;99.90
18541;DHT22;9400;50.924;5.328;2022-09-27T02:15:19;9.80;99.90
18541;DHT22;9400;50.924;5.328;2022-09-27T02:17:55;9.80;99.90
18541;DHT22;9400;50.924;5.328;2022-09-27T02:20:29;9.90;99.90
18541;DHT22;9400;50.924;5.328;2022-09-27T02:23:07;9.90;99.90
18541;DHT22;9400;50.924;5.328;2022-09-27T02:25:42;9.90;99.90
18541;DHT22;9400;50.924;5.328;2022-09-27T02:28:18;9.80;99.90
18541;DHT22;9400;50.924;5.328;2022-09-27T02:30:50;9.80;99.90
18541;DHT22;9400;50.924;5.328;2022-09-27T02:33:21;9.80;99.90
18541;DHT22;9400;50.924;5.328;2022-09-27T02:35:50;9.80;99.90
18541;DHT22;9400;50.924;5.328;2022-09-27T02:38:18;9.80;99.90
18541;DHT22;9400;50.924;5.328;2022-09-27T02:40:46;9.80;99.90
18541;DHT22;9400;50.924;5.328;2022-09-27T02:43:16;9.80;99.90
18541;DHT22;9400;50.924;5.328;2022-09-27T02:45:53;9.80;99.90
18541;DHT22;9400;50.924;5.328;2022-09-27T02:48:34;9.80;99.90
18541;DHT22;9400;50.924;5.328;2022-09-27T02:51:17;9.70;99.90
18541;DHT22;9400;50.924;5.328;2022-09-27T02:54:06;9.70;99.90
18541;DHT22;9400;50.924;5.328;2022-09-27T02:56:44;9.80;99.90
18541;DHT22;9400;50.924;5.328;2022-09-27T02:59:23;9.80;99.90
18541;DHT22;9400;50.924;5.328;2022-09-27T03:02:01;9.70;99.90
18541;DHT22;9400;50.924;5.328;2022-09-27T03:04:34;9.70;99.90
18541;DHT22;9400;50.924;5.328;2022-09-27T03:07:03;9.70;99.90
18541;DHT22;9400;50.924;5.328;2022-09-27T03:09:41;9.70;99.90
18541;DHT22;9400;50.924;5.328;2022-09-27T03:12:09;9.70;99.90
18541;DHT22;9400;50.924;5.328;2022-09-27T03:14:37;9.70;99.90
18541;DHT22;9400;50.924;5.328;2022-09-27T03:17:04;9.70;99.90
18541;DHT22;9400;50.924;5.328;2022-09-27T03:19:33;9.60;99.90
18541;DHT22;9400;50.924;5.328;2022-09-27T03:22:01;9.60;99.90
18541;DHT22;9400;50.924;5.328;2022-09-27T03:24:28;9.70;99.90
18541;DHT22;9400;50.924;5.328;2022-09-27T03:26:55;9.70;99.90
18541;DHT22;9400;50.924;5.328;2022-09-27T03:29:23;9.70;99.90
18541;DHT22;9400;50.924;5.328;2022-09-27T03:31:51;9.70;99.90
18541;DHT22;9400;50.924;5.328;2022-09-27T03:34:18;9.70;99.90
18541;DHT22;9400;50.924;5.328;2022-09-27T03:36:49;9.70;99.90
18541;DHT22;9400;50.924;5.328;2022-09-27T03:39:16;9.60;99.90
18541;DHT22;9400;50.924;5.328;2022-09-27T03:41:44;9.60;99.90
18541;DHT22;9400;50.924;5.328;2022-09-27T03:44:11;9.60;99.90
18541;DHT22;9400;50.924;5.328;2022-09-27T03:46:39;9.60;99.90
18541;DHT22;9400;50.924;5.328;2022-09-27T03:49:07;9.60;99.90
18541;DHT22;9400;50.924;5.328;2022-09-27T03:51:34;9.60;99.90
18541;DHT22;9400;50.924;5.328;2022-09-27T03:54:03;9.70;99.90
18541;DHT22;9400;50.924;5.328;2022-09-27T03:56:31;9.70;99.90
18541;DHT22;9400;50.924;5.328;2022-09-27T03:58:59;9.70;99.90
18541;DHT22;9400;50.924;5.328;2022-09-27T04:01:27;9.70;99.90
18541;DHT22;9400;50.924;5.328;2022-09-27T04:03:54;9.70;99.90
18541;DHT22;9400;50.924;5.328;2022-09-27T04:06:23;9.70;99.90
18541;DHT22;9400;50.924;5.328;2022-09-27T04:08:52;9.60;99.90
18541;DHT22;9400;50.924;5.328;2022-09-27T04:11:22;9.60;99.90
18541;DHT22;9400;50.924;5.328;2022-09-27T04:13:50;9.60;99.90
18541;DHT22;9400;50.924;5.328;2022-09-27T04:16:18;9.60;99.90
18541;DHT22;9400;50.924;5.328;2022-09-27T04:18:45;9.60;99.90
18541;DHT22;9400;50.924;5.328;2022-09-27T04:21:13;9.60;99.90
18541;DHT22;9400;50.924;5.328;2022-09-27T04:23:41;9.60;99.90
18541;DHT22;9400;50.924;5.328;2022-09-27T04:26:08;9.60;99.90
18541;DHT22;9400;50.924;5.328;2022-09-27T04:28:40;9.50;99.90
18541;DHT22;9400;50.924;5.328;2022-09-27T04:31:08;9.40;99.90
18541;DHT22;9400;50.924;5.328;2022-09-27T04:33:35;9.40;99.90
18541;DHT22;9400;50.924;5.328;2022-09-27T04:36:03;9.40;99.90
18541;DHT22;9400;50.924;5.328;2022-09-27T04:38:48;9.40;99.90
18541;DHT22;9400;50.924;5.328;2022-09-27T04:41:16;9.30;99.90
18541;DHT22;9400;50.924;5.328;2022-09-27T04:43:45;9.30;99.90
18541;DHT22;9400;50.924;5.328;2022-09-27T04:46:12;9.30;99.90
18541;DHT22;9400;50.924;5.328;2022-09-27T04:48:40;9.30;99.90
18541;DHT22;9400;50.924;5.328;2022-09-27T04:51:09;9.30;99.90
18541;DHT22;9400;50.924;5.328;2022-09-27T04:53:37;9.30;99.90
18541;DHT22;9400;50.924;5.328;2022-09-27T04:56:05;9.30;99.90
18541;DHT22;9400;50.924;5.328;2022-09-27T04:58:33;9.30;99.90
18541;DHT22;9400;50.924;5.328;2022-09-27T05:01:03;9.30;99.90
18541;DHT22;9400;50.924;5.328;2022-09-27T05:03:31;9.30;99.90
18541;DHT22;9400;50.924;5.328;2022-09-27T05:05:59;9.30;99.90
18541;DHT22;9400;50.924;5.328;2022-09-27T05:08:27;9.30;99.90
18541;DHT22;9400;50.924;5.328;2022-09-27T05:10:55;9.30;99.90
18541;DHT22;9400;50.924;5.328;2022-09-27T05:13:22;9.20;99.90
18541;DHT22;9400;50.924;5.328;2022-09-27T05:15:50;9.30;99.90
18541;DHT22;9400;50.924;5.328;2022-09-27T05:18:20;9.30;99.90
18541;DHT22;9400;50.924;5.328;2022-09-27T05:20:47;9.30;99.90
18541;DHT22;9400;50.924;5.328;2022-09-27T05:23:15;9.30;99.90
18541;DHT22;9400;50.924;5.328;2022-09-27T05:25:42;9.30;99.90
18541;DHT22;9400;50.924;5.328;2022-09-27T05:28:10;9.30;99.90
18541;DHT22;9400;50.924;5.328;2022-09-27T05:30:38;9.30;99.90
18541;DHT22;9400;50.924;5.328;2022-09-27T05:33:05;9.30;99.90
18541;DHT22;9400;50.924;5.328;2022-09-27T05:35:35;9.30;99.90
18541;DHT22;9400;50.924;5.328;2022-09-27T05:38:02;9.30;99.90
18541;DHT22;9400;50.924;5.328;2022-09-27T05:40:30;9.40;99.90
18541;DHT22;9400;50.924;5.328;2022-09-27T05:42:57;9.40;99.90
18541;DHT22;9400;50.924;5.328;2022-09-27T05:45:25;9.40;99.90
18541;DHT22;9400;50.924;5.328;2022-09-27T05:47:54;9.40;99.90
18541;DHT22;9400;50.924;5.328;2022-09-27T05:50:25;9.40;99.90
18541;DHT22;9400;50.924;5.328;2022-09-27T05:52:54;9.40;99.90
18541;DHT22;9400;50.924;5.328;2022-09-27T05:55:22;9.40;99.90
18541;DHT22;9400;50.924;5.328;2022-09-27T05:57:57;9.40;99.90
18541;DHT22;9400;50.924;5.328;2022-09-27T06:00:26;9.50;99.90
18541;DHT22;9400;50.924;5.328;2022-09-27T06:02:56;9.50;99.90
18541;DHT22;9400;50.924;5.328;2022-09-27T06:05:26;9.60;99.90
18541;DHT22;9400;50.924;5.328;2022-09-27T06:07:59;9.50;99.90
18541;DHT22;9400;50.924;5.328;2022-09-27T06:10:28;9.60;99.90
18541;DHT22;9400;50.924;5.328;2022-09-27T06:12:59;9.50;99.90
18541;DHT22;9400;50.924;5.328;2022-09-27T06:15:27;9.50;99.90
18541;DHT22;9400;50.924;5.328;2022-09-27T06:17:56;9.50;99.90
18541;DHT22;9400;50.924;5.328;2022-09-27T06:20:24;9.60;99.90
18541;DHT22;9400;50.924;5.328;2022-09-27T06:22:52;9.70;99.90
18541;DHT22;9400;50.924;5.328;2022-09-27T06:25:24;9.70;99.90
18541;DHT22;9400;50.924;5.328;2022-09-27T06:27:53;9.60;99.90
18541;DHT22;9400;50.924;5.328;2022-09-27T06:30:21;9.70;99.90
18541;DHT22;9400;50.924;5.328;2022-09-27T06:32:55;9.70;99.90
18541;DHT22;9400;50.924;5.328;2022-09-27T06:35:23;9.70;99.90
18541;DHT22;9400;50.924;5.328;2022-09-27T06:37:54;9.70;99.90
18541;DHT22;9400;50.924;5.328;2022-09-27T06:40:24;9.70;99.90
18541;DHT22;9400;50.924;5.328;2022-09-27T06:42:52;9.70;99.90
18541;DHT22;9400;50.924;5.328;2022-09-27T06:45:19;9.70;99.90
18541;DHT22;9400;50.924;5.328;2022-09-27T06:47:47;9.70;99.90
18541;DHT22;9400;50.924;5.328;2022-09-27T06:50:14;9.60;99.90
18541;DHT22;9400;50.924;5.328;2022-09-27T06:52:46;9.70;99.90
18541;DHT22;9400;50.924;5.328;2022-09-27T06:55:15;9.80;99.90
18541;DHT22;9400;50.924;5.328;2022-09-27T06:57:44;9.90;99.90
18541;DHT22;9400;50.924;5.328;2022-09-27T07:00:29;9.80;99.90
18541;DHT22;9400;50.924;5.328;2022-09-27T07:02:57;9.90;99.90
18541;DHT22;9400;50.924;5.328;2022-09-27T07:05:27;9.90;99.90
18541;DHT22;9400;50.924;5.328;2022-09-27T07:07:55;9.90;99.90
18541;DHT22;9400;50.924;5.328;2022-09-27T07:10:26;10.00;99.90
18541;DHT22;9400;50.924;5.328;2022-09-27T07:12:55;10.10;99.90
18541;DHT22;9400;50.924;5.328;2022-09-27T07:15:23;10.20;99.90
18541;DHT22;9400;50.924;5.328;2022-09-27T07:17:55;10.20;99.90
18541;DHT22;9400;50.924;5.328;2022-09-27T07:20:24;10.20;99.90
18541;DHT22;9400;50.924;5.328;2022-09-27T07:22:55;10.30;99.90
18541;DHT22;9400;50.924;5.328;2022-09-27T07:25:23;10.30;99.90
18541;DHT22;9400;50.924;5.328;2022-09-27T07:27:51;10.40;99.90
18541;DHT22;9400;50.924;5.328;2022-09-27T07:30:21;10.30;99.90
18541;DHT22;9400;50.924;5.328;2022-09-27T07:32:48;10.30;99.90
18541;DHT22;9400;50.924;5.328;2022-09-27T07:35:17;10.30;99.90
18541;DHT22;9400;50.924;5.328;2022-09-27T07:37:44;10.30;99.90
18541;DHT22;9400;50.924;5.328;2022-09-27T07:40:11;10.40;99.90
18541;DHT22;9400;50.924;5.328;2022-09-27T07:42:39;10.40;99.90
18541;DHT22;9400;50.924;5.328;2022-09-27T07:45:09;10.40;99.90
18541;DHT22;9400;50.924;5.328;2022-09-27T07:47:42;10.40;99.90
18541;DHT22;9400;50.924;5.328;2022-09-27T07:50:10;10.40;99.90
18541;DHT22;9400;50.924;5.328;2022-09-27T07:52:39;10.40;99.90
18541;DHT22;9400;50.924;5.328;2022-09-27T07:55:08;10.50;99.90
18541;DHT22;9400;50.924;5.328;2022-09-27T07:57:36;10.60;99.90
18541;DHT22;9400;50.924;5.328;2022-09-27T08:00:05;10.50;99.90
18541;DHT22;9400;50.924;5.328;2022-09-27T08:02:38;10.60;99.90
18541;DHT22;9400;50.924;5.328;2022-09-27T08:05:06;10.70;99.90
18541;DHT22;9400;50.924;5.328;2022-09-27T08:07:34;10.60;99.90
18541;DHT22;9400;50.924;5.328;2022-09-27T08:10:05;10.50;99.90
18541;DHT22;9400;50.924;5.328;2022-09-27T08:12:33;10.50;99.90
18541;DHT22;9400;50.924;5.328;2022-09-27T08:15:01;10.50;99.90
18541;DHT22;9400;50.924;5.328;2022-09-27T08:17:29;10.40;99.90
18541;DHT22;9400;50.924;5.328;2022-09-27T08:19:59;10.50;99.90
18541;DHT22;9400;50.924;5.328;2022-09-27T08:22:30;10.40;99.90
18541;DHT22;9400;50.924;5.328;2022-09-27T08:24:57;10.60;99.90
18541;DHT22;9400;50.924;5.328;2022-09-27T08:27:25;10.70;99.90
18541;DHT22;9400;50.924;5.328;2022-09-27T08:29:55;10.70;99.90
18541;DHT22;9400;50.924;5.328;2022-09-27T08:32:23;10.80;99.90
18541;DHT22;9400;50.924;5.328;2022-09-27T08:34:53;10.90;99.90
18541;DHT22;9400;50.924;5.328;2022-09-27T08:37:22;11.00;99.90
18541;DHT22;9400;50.924;5.328;2022-09-27T08:39:49;11.10;99.90
18541;DHT22;9400;50.924;5.328;2022-09-27T08:42:25;11.20;99.90
18541;DHT22;9400;50.924;5.328;2022-09-27T08:45:00;11.20;99.90
18541;DHT22;9400;50.924;5.328;2022-09-27T08:47:34;11.40;99.90
18541;DHT22;9400;50.924;5.328;2022-09-27T08:50:09;11.40;99.90
18541;DHT22;9400;50.924;5.328;2022-09-27T08:52:47;11.40;99.90
18541;DHT22;9400;50.924;5.328;2022-09-27T08:55:24;11.40;99.90
18541;DHT22;9400;50.924;5.328;2022-09-27T08:57:55;11.40;99.90
18541;DHT22;9400;50.924;5.328;2022-09-27T09:00:24;11.40;99.90
18541;DHT22;9400;50.924;5.328;2022-09-27T09:02:52;11.40;99.90
18541;DHT22;9400;50.924;5.328;2022-09-27T09:05:28;11.30;99.90
18541;DHT22;9400;50.924;5.328;2022-09-27T09:08:15;11.30;99.90
18541;DHT22;9400;50.924;5.328;2022-09-27T09:10:52;11.20;99.90
18541;DHT22;9400;50.924;5.328;2022-09-27T09:16:43;11.20;99.90
18541;DHT22;9400;50.924;5.328;2022-09-27T09:19:28;11.30;99.90
18541;DHT22;9400;50.924;5.328;2022-09-27T09:22:07;11.40;99.90
18541;DHT22;9400;50.924;5.328;2022-09-27T09:24:47;11.60;99.90
18541;DHT22;9400;50.924;5.328;2022-09-27T09:27:27;11.60;99.90
18541;DHT22;9400;50.924;5.328;2022-09-27T09:30:18;11.70;99.90
18541;DHT22;9400;50.924;5.328;2022-09-27T09:33:10;11.70;99.90
18541;DHT22;9400;50.924;5.328;2022-09-27T09:35:44;11.60;99.90
18541;DHT22;9400;50.924;5.328;2022-09-27T09:38:19;11.60;99.90
18541;DHT22;9400;50.924;5.328;2022-09-27T09:40:52;11.70;99.90
18541;DHT22;9400;50.924;5.328;2022-09-27T09:43:27;11.90;99.90
18541;DHT22;9400;50.924;5.328;2022-09-27T09:46:01;11.90;99.90
18541;DHT22;9400;50.924;5.328;2022-09-27T09:48:33;11.90;99.90
18541;DHT22;9400;50.924;5.328;2022-09-27T09:51:14;11.80;99.90
18541;DHT22;9400;50.924;5.328;2022-09-27T09:53:50;11.80;99.90
18541;DHT22;9400;50.924;5.328;2022-09-27T09:56:23;11.80;99.90
18541;DHT22;9400;50.924;5.328;2022-09-27T09:58:56;11.90;99.90
18541;DHT22;9400;50.924;5.328;2022-09-27T10:01:26;11.90;99.90
18541;DHT22;9400;50.924;5.328;2022-09-27T10:03:56;11.90;99.90
18541;DHT22;9400;50.924;5.328;2022-09-27T10:06:24;11.90;99.90
18541;DHT22;9400;50.924;5.328;2022-09-27T10:08:53;11.90;99.90
18541;DHT22;9400;50.924;5.328;2022-09-27T10:11:25;12.00;99.90
18541;DHT22;9400;50.924;5.328;2022-09-27T10:13:53;12.00;99.90
18541;DHT22;9400;50.924;5.328;2022-09-27T10:16:22;12.00;99.90
18541;DHT22;9400;50.924;5.328;2022-09-27T10:18:58;11.90;99.90
18541;DHT22;9400;50.924;5.328;2022-09-27T10:21:28;11.70;99.90
18541;DHT22;9400;50.924;5.328;2022-09-27T10:24:04;11.40;99.90
18541;DHT22;9400;50.924;5.328;2022-09-27T10:26:36;11.40;99.90
18541;DHT22;9400;50.924;5.328;2022-09-27T10:29:22;11.40;99.90
18541;DHT22;9400;50.924;5.328;2022-09-27T10:31:51;11.60;99.90
18541;DHT22;9400;50.924;5.328;2022-09-27T10:34:30;11.60;99.90
18541;DHT22;9400;50.924;5.328;2022-09-27T10:37:04;11.50;99.90
18541;DHT22;9400;50.924;5.328;2022-09-27T10:39:33;11.50;99.90
18541;DHT22;9400;50.924;5.328;2022-09-27T10:42:20;11.40;99.90
18541;DHT22;9400;50.924;5.328;2022-09-27T10:44:48;11.40;99.90
18541;DHT22;9400;50.924;5.328;2022-09-27T10:47:18;11.30;99.90
18541;DHT22;9400;50.924;5.328;2022-09-27T10:49:49;11.20;99.90
18541;DHT22;9400;50.924;5.328;2022-09-27T10:52:19;11.30;99.90
18541;DHT22;9400;50.924;5.328;2022-09-27T10:54:59;11.20;99.90
18541;DHT22;9400;50.924;5.328;2022-09-27T10:57:30;11.20;99.90
18541;DHT22;9400;50.924;5.328;2022-09-27T11:00:00;11.30;99.90
18541;DHT22;9400;50.924;5.328;2022-09-27T11:02:31;11.40;99.90
18541;DHT22;9400;50.924;5.328;2022-09-27T11:05:08;11.60;99.90
18541;DHT22;9400;50.924;5.328;2022-09-27T11:07:37;11.50;99.90
18541;DHT22;9400;50.924;5.328;2022-09-27T11:10:26;11.60;99.90
18541;DHT22;9400;50.924;5.328;2022-09-27T11:13:10;11.50;99.90
18541;DHT22;9400;50.924;5.328;2022-09-27T11:15:55;11.30;99.90
18541;DHT22;9400;50.924;5.328;2022-09-27T11:18:31;11.40;99.90
18541;DHT22;9400;50.924;5.328;2022-09-27T11:21:11;11.10;99.90
18541;DHT22;9400;50.924;5.328;2022-09-27T11:23:55;11.10;99.90
18541;DHT22;9400;50.924;5.328;2022-09-27T11:26:39;11.10;99.90
18541;DHT22;9400;50.924;5.328;2022-09-27T11:29:21;11.20;99.90
18541;DHT22;9400;50.924;5.328;2022-09-27T11:32:06;11.40;99.90
18541;DHT22;9400;50.924;5.328;2022-09-27T11:34:57;11.60;99.90
18541;DHT22;9400;50.924;5.328;2022-09-27T11:37:35;11.80;99.90
18541;DHT22;9400;50.924;5.328;2022-09-27T11:40:18;12.00;99.90
18541;DHT22;9400;50.924;5.328;2022-09-27T11:46:11;12.30;99.90
18541;DHT22;9400;50.924;5.328;2022-09-27T11:49:00;12.50;99.90
18541;DHT22;9400;50.924;5.328;2022-09-27T11:51:46;12.50;99.90
18541;DHT22;9400;50.924;5.328;2022-09-27T11:54:38;12.40;99.90
18541;DHT22;9400;50.924;5.328;2022-09-27T11:57:17;12.50;99.90
18541;DHT22;9400;50.924;5.328;2022-09-27T12:00:06;12.60;99.90
18541;DHT22;9400;50.924;5.328;2022-09-27T12:05:41;12.60;99.90
18541;DHT22;9400;50.924;5.328;2022-09-27T12:08:27;12.70;99.90
18541;DHT22;9400;50.924;5.328;2022-09-27T12:11:02;13.00;99.90
18541;DHT22;9400;50.924;5.328;2022-09-27T12:13:35;13.20;99.90
18541;DHT22;9400;50.924;5.328;2022-09-27T12:16:04;13.80;99.90
18541;DHT22;9400;50.924;5.328;2022-09-27T12:18:36;14.30;99.90
18541;DHT22;9400;50.924;5.328;2022-09-27T12:21:07;14.60;99.90
18541;DHT22;9400;50.924;5.328;2022-09-27T12:23:40;14.90;99.90
18541;DHT22;9400;50.924;5.328;2022-09-27T12:26:12;14.80;99.90
18541;DHT22;9400;50.924;5.328;2022-09-27T12:28:47;14.50;99.90
18541;DHT22;9400;50.924;5.328;2022-09-27T12:31:19;14.10;99.90
18541;DHT22;9400;50.924;5.328;2022-09-27T12:33:58;14.00;99.90
18541;DHT22;9400;50.924;5.328;2022-09-27T12:36:32;13.80;99.90
18541;DHT22;9400;50.924;5.328;2022-09-27T12:39:08;13.60;99.90
18541;DHT22;9400;50.924;5.328;2022-09-27T12:41:45;12.40;99.90
18541;DHT22;9400;50.924;5.328;2022-09-27T12:44:15;10.30;99.90
18541;DHT22;9400;50.924;5.328;2022-09-27T12:46:51;9.30;99.90
18541;DHT22;9400;50.924;5.328;2022-09-27T12:49:29;9.00;99.90
18541;DHT22;9400;50.924;5.328;2022-09-27T12:52:03;9.20;99.90
18541;DHT22;9400;50.924;5.328;2022-09-27T12:54:56;9.40;99.90
18541;DHT22;9400;50.924;5.328;2022-09-27T12:57:38;9.60;99.90
18541;DHT22;9400;50.924;5.328;2022-09-27T13:00:10;9.50;99.90
18541;DHT22;9400;50.924;5.328;2022-09-27T13:06:05;9.90;99.90
18541;DHT22;9400;50.924;5.328;2022-09-27T13:09:05;10.20;99.90
18541;DHT22;9400;50.924;5.328;2022-09-27T13:11:45;10.70;99.90
18541;DHT22;9400;50.924;5.328;2022-09-27T13:14:18;10.90;99.90
18541;DHT22;9400;50.924;5.328;2022-09-27T13:16:47;11.10;99.90
18541;DHT22;9400;50.924;5.328;2022-09-27T13:19:38;11.00;99.90
18541;DHT22;9400;50.924;5.328;2022-09-27T13:22:16;11.30;99.90
18541;DHT22;9400;50.924;5.328;2022-09-27T13:25:02;11.60;99.90
18541;DHT22;9400;50.924;5.328;2022-09-27T13:27:36;12.00;99.90
18541;DHT22;9400;50.924;5.328;2022-09-27T13:30:42;12.60;99.90
18541;DHT22;9400;50.924;5.328;2022-09-27T13:33:31;12.80;99.90
18541;DHT22;9400;50.924;5.328;2022-09-27T13:36:07;13.00;99.90
18541;DHT22;9400;50.924;5.328;2022-09-27T13:39:00;13.00;99.90
18541;DHT22;9400;50.924;5.328;2022-09-27T13:41:39;13.50;99.90
18541;DHT22;9400;50.924;5.328;2022-09-27T13:44:12;13.90;99.90
18541;DHT22;9400;50.924;5.328;2022-09-27T13:46:47;15.30;99.90
18541;DHT22;9400;50.924;5.328;2022-09-27T13:49:19;16.60;99.90
18541;DHT22;9400;50.924;5.328;2022-09-27T13:51:50;15.60;99.90
18541;DHT22;9400;50.924;5.328;2022-09-27T13:54:50;15.40;99.90
18541;DHT22;9400;50.924;5.328;2022-09-27T13:57:41;14.90;99.90
18541;DHT22;9400;50.924;5.328;2022-09-27T14:00:13;15.00;99.90
18541;DHT22;9400;50.924;5.328;2022-09-27T14:02:53;16.00;99.90
18541;DHT22;9400;50.924;5.328;2022-09-27T14:05:25;16.70;99.90
18541;DHT22;9400;50.924;5.328;2022-09-27T14:07:54;16.90;99.90
18541;DHT22;9400;50.924;5.328;2022-09-27T14:10:26;16.80;99.90
18541;DHT22;9400;50.924;5.328;2022-09-27T14:12:57;15.90;99.90
18541;DHT22;9400;50.924;5.328;2022-09-27T14:15:27;14.90;99.90
18541;DHT22;9400;50.924;5.328;2022-09-27T14:17:56;14.40;99.90
18541;DHT22;9400;50.924;5.328;2022-09-27T14:20:32;14.10;99.90
18541;DHT22;9400;50.924;5.328;2022-09-27T14:23:01;13.80;99.90
18541;DHT22;9400;50.924;5.328;2022-09-27T14:25:30;13.70;99.90
18541;DHT22;9400;50.924;5.328;2022-09-27T14:27:58;13.40;99.90
18541;DHT22;9400;50.924;5.328;2022-09-27T14:30:27;13.20;99.90
18541;DHT22;9400;50.924;5.328;2022-09-27T14:32:56;12.70;99.90
18541;DHT22;9400;50.924;5.328;2022-09-27T14:35:28;12.60;99.90
18541;DHT22;9400;50.924;5.328;2022-09-27T14:38:15;12.60;99.90
18541;DHT22;9400;50.924;5.328;2022-09-27T14:41:01;12.50;99.90
18541;DHT22;9400;50.924;5.328;2022-09-27T14:43:30;12.40;99.90
18541;DHT22;9400;50.924;5.328;2022-09-27T14:45:59;12.40;99.90
18541;DHT22;9400;50.924;5.328;2022-09-27T14:48:29;12.40;99.90
18541;DHT22;9400;50.924;5.328;2022-09-27T14:50:58;12.40;99.90
18541;DHT22;9400;50.924;5.328;2022-09-27T14:53:30;12.40;99.90
18541;DHT22;9400;50.924;5.328;2022-09-27T14:56:01;12.30;99.90
18541;DHT22;9400;50.924;5.328;2022-09-27T14:58:30;12.40;99.90
18541;DHT22;9400;50.924;5.328;2022-09-27T15:00:57;12.40;99.90
18541;DHT22;9400;50.924;5.328;2022-09-27T15:03:28;12.40;99.90
18541;DHT22;9400;50.924;5.328;2022-09-27T15:05:56;12.50;99.90
18541;DHT22;9400;50.924;5.328;2022-09-27T15:08:27;12.50;99.90
18541;DHT22;9400;50.924;5.328;2022-09-27T15:11:03;12.60;99.90
18541;DHT22;9400;50.924;5.328;2022-09-27T15:13:35;12.90;99.90
18541;DHT22;9400;50.924;5.328;2022-09-27T15:16:07;12.90;99.90
18541;DHT22;9400;50.924;5.328;2022-09-27T15:18:40;12.90;99.90
18541;DHT22;9400;50.924;5.328;2022-09-27T15:21:10;12.90;99.90
18541;DHT22;9400;50.924;5.328;2022-09-27T15:23:39;12.90;99.90
18541;DHT22;9400;50.924;5.328;2022-09-27T15:26:12;13.20;99.90
18541;DHT22;9400;50.924;5.328;2022-09-27T15:28:43;13.30;99.90
18541;DHT22;9400;50.924;5.328;2022-09-27T15:31:13;13.50;99.90
18541;DHT22;9400;50.924;5.328;2022-09-27T15:33:42;13.50;99.90
18541;DHT22;9400;50.924;5.328;2022-09-27T15:36:48;13.70;99.90
18541;DHT22;9400;50.924;5.328;2022-09-27T15:39:20;13.60;99.90
18541;DHT22;9400;50.924;5.328;2022-09-27T15:42:03;13.50;99.90
18541;DHT22;9400;50.924;5.328;2022-09-27T15:44:43;14.00;99.90
18541;DHT22;9400;50.924;5.328;2022-09-27T15:50:33;13.90;99.90
18541;DHT22;9400;50.924;5.328;2022-09-27T15:53:01;13.80;99.90
18541;DHT22;9400;50.924;5.328;2022-09-27T15:55:34;13.60;99.90
18541;DHT22;9400;50.924;5.328;2022-09-27T15:58:06;13.30;99.90
18541;DHT22;9400;50.924;5.328;2022-09-27T16:00:34;13.20;99.90
18541;DHT22;9400;50.924;5.328;2022-09-27T16:03:02;13.10;99.90
18541;DHT22;9400;50.924;5.328;2022-09-27T16:05:30;13.10;99.90
18541;DHT22;9400;50.924;5.328;2022-09-27T16:07:58;13.00;99.90
18541;DHT22;9400;50.924;5.328;2022-09-27T16:10:29;13.00;99.90
18541;DHT22;9400;50.924;5.328;2022-09-27T16:12:58;12.90;99.90
18541;DHT22;9400;50.924;5.328;2022-09-27T16:15:28;12.70;99.90
18541;DHT22;9400;50.924;5.328;2022-09-27T16:17:56;12.50;99.90
18541;DHT22;9400;50.924;5.328;2022-09-27T16:20:26;12.30;99.90
18541;DHT22;9400;50.924;5.328;2022-09-27T16:22:54;12.30;99.90
18541;DHT22;9400;50.924;5.328;2022-09-27T16:25:23;12.20;99.90
18541;DHT22;9400;50.924;5.328;2022-09-27T16:27:51;12.10;99.90
18541;DHT22;9400;50.924;5.328;2022-09-27T16:30:19;12.50;99.90
18541;DHT22;9400;50.924;5.328;2022-09-27T16:32:48;13.60;99.90
18541;DHT22;9400;50.924;5.328;2022-09-27T16:35:18;15.00;99.90
18541;DHT22;9400;50.924;5.328;2022-09-27T16:37:48;14.80;99.90
18541;DHT22;9400;50.924;5.328;2022-09-27T16:40:16;14.40;99.90
18541;DHT22;9400;50.924;5.328;2022-09-27T16:42:48;13.80;99.90
18541;DHT22;9400;50.924;5.328;2022-09-27T16:45:16;13.20;99.90
18541;DHT22;9400;50.924;5.328;2022-09-27T16:47:44;12.90;99.90
18541;DHT22;9400;50.924;5.328;2022-09-27T16:50:14;12.70;99.90